Time;durP1;ratioP1;P1;durP2;ratioP2;P2;SDS_P1;SDS_P2;PMS_P1;PMS_P2;Temp;Humidity;BMP_temperature;BMP_pressure;BME280_temperature;BME280_humidity;BME280_pressure;Samples;Min_cycle;Max_cycle;Signal;HPM_P1;HPM_P2
2023/02/09 00:01:42;;;;;;;29.70;12.20;;;;;;;-8.54;70.90;101821.27;77996;1301;3030297;-63
2023/02/09 00:04:08;;;;;;;24.00;11.40;;;;;;;-8.58;70.70;101822.40;79184;1295;3013495;-61
2023/02/09 00:06:35;;;;;;;27.50;10.30;;;;;;;-8.45;70.40;101818.52;79253;1300;3011969;-61
2023/02/09 00:09:03;;;;;;;28.50;12.30;;;;;;;-8.57;70.64;101815.51;77938;1300;3029044;-63
2023/02/09 00:14:18;;;;;;;25.70;10.40;;;;;;;-8.42;70.12;101814.23;78011;1301;3050776;-62
2023/02/09 00:16:45;;;;;;;23.70;10.20;;;;;;;-8.49;70.22;101817.13;79365;1298;3011695;-62
2023/02/09 00:19:12;;;;;;;23.40;10.00;;;;;;;-8.46;70.16;101813.19;79219;1295;3011631;-60
2023/02/09 00:21:40;;;;;;;18.10;8.80;;;;;;;-8.60;70.65;101813.98;77990;1301;3052800;-62
2023/02/09 00:24:09;;;;;;;28.10;11.20;;;;;;;-8.41;70.26;101811.25;79246;1296;3013639;-63
2023/02/09 00:26:36;;;;;;;24.20;10.20;;;;;;;-8.35;70.29;101812.39;79318;1295;3011632;-65
2023/02/09 00:29:04;;;;;;;27.50;11.00;;;;;;;-8.29;69.34;101809.16;78023;1300;3050886;-62
2023/02/09 00:31:30;;;;;;;27.20;11.30;;;;;;;-8.35;69.51;101806.46;79275;1301;3012924;-62
2023/02/09 00:33:58;;;;;;;27.70;12.40;;;;;;;-8.33;69.53;101809.63;79278;1300;3011639;-62
2023/02/09 00:36:27;;;;;;;24.60;11.30;;;;;;;-8.38;69.79;101806.11;78005;1295;3052785;-62
2023/02/09 00:38:55;;;;;;;27.20;12.30;;;;;;;-8.39;70.02;101801.31;79210;1296;3013620;-64
2023/02/09 00:42:04;;;;;;;28.00;13.40;;;;;;;-8.35;69.59;101799.30;79177;1300;3012977;-65
2023/02/09 00:44:10;;;;;;;26.20;12.40;;;;;;;-8.44;70.04;101796.83;77957;1300;3051467;-63
2023/02/09 00:46:36;;;;;;;31.50;13.20;;;;;;;-8.30;69.80;101797.73;79341;1300;3018855;-64
2023/02/09 00:49:03;;;;;;;36.30;14.30;;;;;;;-8.29;69.81;101792.83;79211;1301;3011484;-62
2023/02/09 00:51:31;;;;;;;29.50;13.40;;;;;;;-8.42;69.90;101793.70;77983;1299;3028582;-63
2023/02/09 00:53:58;;;;;;;30.10;13.50;;;;;;;-8.26;69.88;101792.68;79324;1294;3021197;-64
2023/02/09 00:56:24;;;;;;;28.80;13.20;;;;;;;-8.21;69.70;101787.98;79359;1295;3013637;-65
2023/02/09 00:58:52;;;;;;;27.00;11.90;;;;;;;-8.19;68.82;101787.23;78249;1298;3029523;-62
2023/02/09 01:01:19;;;;;;;25.60;12.50;;;;;;;-8.27;69.03;101788.86;79519;1295;3013300;-64
2023/02/09 01:03:46;;;;;;;29.10;12.70;;;;;;;-8.19;69.07;101788.08;79302;1295;3011602;-63
2023/02/09 01:06:14;;;;;;;29.10;12.50;;;;;;;-8.13;69.14;101782.81;78061;1298;3029101;-63
2023/02/09 01:08:41;;;;;;;30.30;13.00;;;;;;;-8.17;69.27;101789.36;79287;1296;3013329;-64
2023/02/09 01:11:09;;;;;;;29.50;12.60;;;;;;;-8.32;69.18;101783.65;79302;1298;3011517;-63
2023/02/09 01:13:37;;;;;;;29.20;12.00;;;;;;;-8.27;69.19;101783.76;78092;1298;3050771;-62
2023/02/09 01:16:05;;;;;;;25.70;11.40;;;;;;;-8.32;69.35;101784.02;79324;1298;3018848;-65
2023/02/09 01:18:32;;;;;;;27.10;11.10;;;;;;;-8.38;69.25;101786.92;79290;1296;3011434;-63
2023/02/09 01:21:11;;;;;;;24.60;11.30;;;;;;;-8.31;69.29;101786.98;78130;1295;3052294;-63
2023/02/09 01:23:40;;;;;;;28.40;11.60;;;;;;;-8.36;69.07;101784.98;78136;1298;3057742;-61
2023/02/09 01:26:10;;;;;;;25.30;11.90;;;;;;;-8.36;69.56;101786.19;79341;1295;3013772;-64
2023/02/09 01:28:39;;;;;;;22.80;11.60;;;;;;;-8.31;69.12;101782.18;78789;1298;3011655;-65
2023/02/09 01:31:14;;;;;;;25.30;11.20;;;;;;;-8.22;69.08;101784.38;79367;1298;3012841;-64
2023/02/09 01:33:43;;;;;;;32.60;10.40;;;;;;;-8.30;69.12;101782.90;77950;1301;3053357;-63
2023/02/09 01:36:10;;;;;;;26.40;12.50;;;;;;;-8.32;68.89;101782.98;79178;1301;3019057;-63
2023/02/09 01:38:36;;;;;;;36.80;14.00;;;;;;;-8.31;69.24;101780.64;79287;1298;3013337;-66
2023/02/09 01:41:05;;;;;;;32.20;13.20;;;;;;;-8.35;69.04;101781.29;78067;1298;3029630;-63
2023/02/09 01:43:50;;;;;;;23.90;11.60;;;;;;;-8.37;68.93;101781.69;79370;1295;3013541;-64
2023/02/09 01:46:20;;;;;;;26.60;12.30;;;;;;;-8.36;69.29;101781.59;78106;1295;3053961;-62
2023/02/09 01:48:48;;;;;;;32.80;12.70;;;;;;;-8.33;69.26;101779.86;79314;1301;3013151;-64
2023/02/09 01:51:20;;;;;;;30.70;13.50;;;;;;;-8.48;69.16;101778.27;78094;1302;3053148;-63
2023/02/09 01:53:47;;;;;;;25.80;11.90;;;;;;;-8.38;69.20;101782.33;79222;1295;3013340;-64
2023/02/09 01:56:17;;;;;;;29.70;13.40;;;;;;;-8.46;69.49;101778.52;79161;1296;3013243;-62
2023/02/09 01:58:45;;;;;;;29.40;12.80;;;;;;;-8.45;69.60;101778.06;77979;1300;3048770;-64
2023/02/09 02:01:12;;;;;;;23.30;11.40;;;;;;;-8.32;69.44;101773.64;79339;1298;3020711;-63
2023/02/09 02:03:40;;;;;;;27.00;11.90;;;;;;;-8.29;69.25;101776.17;79371;1298;3011756;-63
2023/02/09 02:06:09;;;;;;;22.70;11.10;;;;;;;-8.46;69.23;101774.98;78100;1301;3052688;-63
2023/02/09 02:08:42;;;;;;;30.00;12.60;;;;;;;-8.36;68.97;101772.05;79229;1301;3013568;-61
2023/02/09 02:11:12;;;;;;;25.70;10.90;;;;;;;-8.39;68.97;101776.19;78002;1301;3049415;-62
2023/02/09 02:13:40;;;;;;;24.70;11.20;;;;;;;-8.44;69.01;101780.85;79214;1296;3013108;-63
2023/02/09 02:16:44;;;;;;;25.80;10.90;;;;;;;-8.59;69.27;101787.53;79322;1296;3012475;-63
2023/02/09 02:19:43;;;;;;;31.10;11.10;;;;;;;-8.43;69.70;101780.35;78097;1301;3053999;-63
2023/02/09 02:22:14;;;;;;;26.80;11.30;;;;;;;-8.50;69.23;101778.51;77957;1296;3070479;-63
2023/02/09 02:24:40;;;;;;;28.00;12.10;;;;;;;-8.39;69.29;101776.83;79294;1295;3011677;-61
2023/02/09 02:27:14;;;;;;;24.40;11.80;;;;;;;-8.48;69.08;101778.10;78102;1298;3029968;-63
2023/02/09 02:30:06;;;;;;;24.30;12.00;;;;;;;-8.55;68.83;101783.32;79297;1295;3013285;-63
2023/02/09 02:32:53;;;;;;;28.80;11.00;;;;;;;-8.59;69.25;101781.95;77979;1300;3055061;-63
2023/02/09 02:35:44;;;;;;;28.10;11.10;;;;;;;-8.58;69.06;101780.95;78007;1298;3050036;-63
2023/02/09 02:38:20;;;;;;;34.30;13.20;;;;;;;-8.81;69.80;101778.37;78059;1301;3053835;-60
2023/02/09 02:41:23;;;;;;;38.50;12.70;;;;;;;-8.87;69.78;101782.27;78001;1301;3053062;-61
2023/02/09 02:44:03;;;;;;;26.10;11.50;;;;;;;-9.04;70.46;101778.42;78050;1307;3070357;-63
2023/02/09 02:47:06;;;;;;;27.00;11.30;;;;;;;-9.01;70.32;101778.11;78220;1298;3053298;-62
2023/02/09 02:49:52;;;;;;;34.20;10.70;;;;;;;-8.95;70.02;101775.70;77625;1302;3056873;-61
2023/02/09 02:52:20;;;;;;;27.50;10.40;;;;;;;-8.97;70.28;101778.14;78067;1298;3050712;-62
2023/02/09 02:54:59;;;;;;;15.70;7.10;;;;;;;-9.15;70.73;101777.11;79313;1295;3011606;-63
2023/02/09 02:57:29;;;;;;;20.60;8.70;;;;;;;-8.98;70.76;101772.33;78106;1296;3050416;-63
2023/02/09 02:59:59;;;;;;;16.30;8.40;;;;;;;-8.01;68.97;101763.82;79329;1300;3011877;-63
2023/02/09 03:02:32;;;;;;;24.20;10.20;;;;;;;-7.56;67.02;101762.06;78296;1299;3052212;-63
2023/02/09 03:04:59;;;;;;;20.40;9.50;;;;;;;-7.58;65.81;101757.36;79387;1296;3011773;-63
2023/02/09 03:07:27;;;;;;;19.70;9.60;;;;;;;-7.84;66.24;101759.80;77997;1301;3052014;-63
2023/02/09 03:09:55;;;;;;;19.20;9.40;;;;;;;-7.95;66.50;101762.09;79344;1302;3013440;-63
2023/02/09 03:12:57;;;;;;;23.30;9.50;;;;;;;-8.21;67.34;101763.14;78224;1301;3053309;-63
2023/02/09 03:15:31;;;;;;;22.50;9.80;;;;;;;-8.49;67.52;101760.86;77979;1300;3049882;-63
2023/02/09 03:18:36;;;;;;;17.60;9.00;;;;;;;-8.67;68.25;101764.50;79435;1296;3012929;-63
2023/02/09 03:21:14;;;;;;;28.10;12.10;;;;;;;-8.93;68.64;101768.85;78007;1298;3052330;-63
2023/02/09 03:23:55;;;;;;;26.20;12.10;;;;;;;-9.19;69.39;101769.09;78055;1300;3070010;-62
2023/02/09 03:26:28;;;;;;;24.20;10.90;;;;;;;-9.27;69.77;101767.48;78016;1300;3050974;-63
2023/02/09 03:28:55;;;;;;;28.30;11.30;;;;;;;-9.33;69.98;101764.77;79379;1298;3013819;-64
2023/02/09 03:31:24;;;;;;;11.20;6.10;;;;;;;-9.38;70.01;101764.97;78791;1298;3013176;-64
2023/02/09 03:33:51;;;;;;;9.80;3.20;;;;;;;-9.35;70.04;101762.94;79237;1300;3013572;-63
2023/02/09 03:36:18;;;;;;;22.10;10.10;;;;;;;-8.84;69.18;101764.58;79253;1299;3011805;-62
2023/02/09 03:38:48;;;;;;;22.30;9.40;;;;;;;-8.18;67.36;101760.92;77974;1300;3052671;-63
2023/02/09 03:41:15;;;;;;;19.60;8.20;;;;;;;-8.25;66.35;101758.35;79188;1298;3012829;-64
2023/02/09 03:46:28;;;;;;;;;;;;;;;-8.59;66.64;101761.72;78063;1298;3051928;-64
2023/02/09 03:48:55;;;;;;;19.80;8.60;;;;;;;-8.87;67.20;101763.09;79126;1296;3013323;-65
2023/02/09 03:51:22;;;;;;;23.10;9.90;;;;;;;-9.30;68.38;101762.55;79308;1296;3011669;-63
2023/02/09 03:53:50;;;;;;;23.60;10.30;;;;;;;-9.52;69.36;101757.58;78011;1299;3053711;-65
2023/02/09 03:56:16;;;;;;;25.40;10.90;;;;;;;-9.71;70.02;101757.17;79271;1301;3013234;-62
2023/02/09 03:58:43;;;;;;;32.00;11.30;;;;;;;-9.88;70.71;101754.48;79735;1299;3011656;-64
2023/02/09 04:01:11;;;;;;;8.30;3.70;;;;;;;-9.87;71.18;101756.23;78241;1295;3026835;-65
2023/02/09 04:03:38;;;;;;;18.80;8.60;;;;;;;-9.35;70.54;101749.70;79539;1302;3013647;-64
2023/02/09 04:06:05;;;;;;;27.10;11.20;;;;;;;-8.48;68.16;101747.95;79511;1296;3013167;-64
2023/02/09 04:08:35;;;;;;;25.10;10.40;;;;;;;-8.35;66.89;101747.97;78410;1308;3052976;-64
2023/02/09 04:11:02;;;;;;;25.40;9.30;;;;;;;-8.49;66.88;101755.94;79499;1301;3012832;-63
2023/02/09 04:13:30;;;;;;;27.90;10.60;;;;;;;-8.71;67.43;101755.08;79421;1296;3011993;-64
2023/02/09 04:15:58;;;;;;;22.00;10.60;;;;;;;-8.89;67.98;101759.88;78224;1299;3050559;-63
2023/02/09 04:18:25;;;;;;;29.20;11.90;;;;;;;-8.98;68.51;101757.38;79536;1296;3012898;-64
2023/02/09 04:20:51;;;;;;;27.90;11.50;;;;;;;-9.06;68.47;101760.68;79532;1296;3011616;-64
2023/02/09 04:23:19;;;;;;;25.40;11.60;;;;;;;-9.25;68.88;101760.27;78315;1295;3026621;-63
2023/02/09 04:25:46;;;;;;;29.70;12.00;;;;;;;-9.44;70.04;101754.48;79414;1297;3013780;-65
2023/02/09 04:28:12;;;;;;;23.50;10.30;;;;;;;-9.43;70.04;101757.08;79480;1300;3011638;-65
2023/02/09 04:30:42;;;;;;;17.10;9.00;;;;;;;-9.52;70.36;101758.25;78287;1302;3028439;-63
2023/02/09 04:33:12;;;;;;;11.60;4.60;;;;;;;-9.39;70.40;101755.12;79537;1299;3012986;-64
2023/02/09 04:35:42;;;;;;;18.60;9.40;;;;;;;-8.73;68.92;101753.47;78151;1298;3050894;-64
2023/02/09 04:38:09;;;;;;;27.90;10.60;;;;;;;-8.22;67.16;101756.50;79454;1308;3011689;-63
2023/02/09 04:40:38;;;;;;;18.80;9.20;;;;;;;-8.28;66.98;101759.90;78980;1295;3011719;-62
2023/02/09 04:43:05;;;;;;;29.00;11.30;;;;;;;-8.46;66.80;101762.02;79429;1300;3015052;-64
2023/02/09 04:45:31;;;;;;;26.40;11.70;;;;;;;-8.70;67.68;101761.23;79386;1302;3011433;-66
2023/02/09 04:47:59;;;;;;;28.40;11.90;;;;;;;-8.76;67.73;101762.45;78165;1301;3049548;-64
2023/02/09 04:50:26;;;;;;;25.60;11.40;;;;;;;-8.91;68.14;101767.41;79384;1298;3013720;-64
2023/02/09 04:52:53;;;;;;;30.40;12.50;;;;;;;-9.12;68.63;101764.93;79380;1298;3013054;-66
2023/02/09 04:55:21;;;;;;;27.10;10.90;;;;;;;-9.12;69.06;101762.00;78253;1308;3026808;-63
2023/02/09 05:00:34;;;;;;;23.30;10.40;;;;;;;-9.39;69.38;101758.49;78149;1298;3058757;-64
2023/02/09 05:03:00;;;;;;;22.90;10.00;;;;;;;-9.39;69.75;101761.71;79366;1296;3013642;-66
2023/02/09 05:05:27;;;;;;;14.60;6.10;;;;;;;-9.39;70.42;101762.23;79371;1299;3011781;-63
2023/02/09 05:07:55;;;;;;;25.20;9.00;;;;;;;-8.60;68.89;101758.71;78261;1298;3025899;-64
2023/02/09 05:10:21;;;;;;;25.50;10.30;;;;;;;-7.96;66.31;101766.01;79419;1299;3019229;-64
2023/02/09 05:12:48;;;;;;;24.10;10.20;;;;;;;-7.86;65.86;101759.00;79365;1298;3011647;-65
2023/02/09 05:15:17;;;;;;;25.80;10.70;;;;;;;-7.93;65.41;101759.84;78172;1299;3028383;-64
2023/02/09 05:17:44;;;;;;;22.90;10.10;;;;;;;-7.92;65.72;101759.23;79591;1292;3013942;-64
2023/02/09 05:20:10;;;;;;;21.80;10.40;;;;;;;-7.96;65.38;101758.84;79576;1295;3012961;-64
2023/02/09 05:22:38;;;;;;;23.60;11.70;;;;;;;-8.13;65.53;101761.52;78417;1292;3028947;-65
2023/02/09 05:25:05;;;;;;;35.30;11.60;;;;;;;-8.24;65.38;101765.35;79650;1295;3013352;-64
2023/02/09 05:27:32;;;;;;;31.90;13.40;;;;;;;-8.33;66.26;101760.31;79571;1295;3011635;-64
2023/02/09 05:30:00;;;;;;;28.70;12.60;;;;;;;-8.34;66.37;101760.29;78356;1295;3029173;-63
2023/02/09 05:32:26;;;;;;;34.60;13.50;;;;;;;-8.45;66.31;101759.35;79712;1293;3013525;-65
2023/02/09 05:34:53;;;;;;;30.20;13.20;;;;;;;-8.41;66.39;101760.21;79615;1295;3011495;-65
2023/02/09 05:37:20;;;;;;;27.30;13.70;;;;;;;-8.57;66.50;101762.84;78577;1295;3029699;-64
2023/02/09 05:39:49;;;;;;;28.30;11.40;;;;;;;-8.75;67.07;101766.79;79706;1295;3018603;-64
2023/02/09 05:42:16;;;;;;;23.70;10.60;;;;;;;-8.84;67.80;101770.71;79631;1295;3013200;-64
2023/02/09 05:44:48;;;;;;;23.00;10.00;;;;;;;-8.97;67.81;101769.14;78392;1295;3058122;-63
2023/02/09 05:47:19;;;;;;;29.30;13.10;;;;;;;-9.13;68.40;101768.25;79698;1294;3012856;-64
2023/02/09 05:49:47;;;;;;;17.00;7.00;;;;;;;-9.13;69.18;101767.73;78390;1292;3054313;-64
2023/02/09 05:52:13;;;;;;;22.80;8.50;;;;;;;-8.80;69.08;101765.12;79597;1295;3013784;-65
2023/02/09 05:54:40;;;;;;;18.80;9.00;;;;;;;-7.90;67.02;101767.98;79626;1295;3013591;-64
2023/02/09 05:57:08;;;;;;;24.00;11.60;;;;;;;-7.38;65.47;101766.14;78457;1295;3028961;-65
2023/02/09 05:59:34;;;;;;;27.80;12.40;;;;;;;-7.41;64.27;101765.83;79624;1292;3019283;-64
2023/02/09 06:02:01;;;;;;;31.30;12.60;;;;;;;-7.78;65.35;101767.27;79623;1295;3012882;-64
2023/02/09 06:04:29;;;;;;;34.80;13.30;;;;;;;-7.92;65.28;101769.55;78423;1294;3029916;-62
2023/02/09 06:06:56;;;;;;;33.50;13.40;;;;;;;-7.93;66.30;101768.00;79652;1295;3013161;-64
2023/02/09 06:09:22;;;;;;;35.50;15.10;;;;;;;-8.07;66.16;101763.38;79751;1294;3011510;-65
2023/02/09 06:11:50;;;;;;;37.00;15.50;;;;;;;-8.13;66.45;101759.67;78369;1293;3068484;-65
2023/02/09 06:14:17;;;;;;;37.20;14.50;;;;;;;-8.09;67.13;101758.33;79743;1295;3013287;-65
2023/02/09 06:16:43;;;;;;;41.90;15.80;;;;;;;-8.10;67.05;101758.28;79638;1291;3014274;-64
2023/02/09 06:19:15;;;;;;;35.70;16.00;;;;;;;-8.04;67.07;101753.64;78189;1295;3029603;-65
2023/02/09 06:21:42;;;;;;;44.70;18.70;;;;;;;-8.14;67.22;101747.38;79650;1294;3011491;-64
2023/02/09 06:24:11;;;;;;;35.10;15.60;;;;;;;-7.98;67.36;101747.70;78410;1295;3026943;-64
2023/02/09 06:26:38;;;;;;;35.00;14.10;;;;;;;-7.84;66.91;101751.77;79723;1295;3011917;-66
2023/02/09 06:29:06;;;;;;;33.90;14.00;;;;;;;-7.85;66.92;101752.07;79557;1292;3013457;-66
2023/02/09 06:31:34;;;;;;;30.00;13.20;;;;;;;-7.77;66.76;101758.77;78559;1292;3058094;-65
2023/02/09 06:34:01;;;;;;;31.50;14.00;;;;;;;-7.76;66.21;101758.46;79746;1292;3013351;-63
2023/02/09 06:36:33;;;;;;;32.70;14.40;;;;;;;-7.79;66.66;101756.13;79086;1291;3013473;-64
2023/02/09 06:39:00;;;;;;;28.90;13.50;;;;;;;-7.82;66.79;101760.05;79670;1295;3013409;-62
2023/02/09 06:41:27;;;;;;;33.80;14.60;;;;;;;-7.79;67.25;101763.61;79599;1292;3011735;-63
2023/02/09 06:43:55;;;;;;;37.80;15.10;;;;;;;-7.67;66.64;101762.83;78418;1295;3029660;-63
2023/02/09 06:46:22;;;;;;;33.00;14.90;;;;;;;-7.88;67.13;101760.61;79685;1295;3019105;-65
2023/02/09 06:48:48;;;;;;;33.30;14.80;;;;;;;-7.83;67.97;101764.77;79676;1292;3012488;-63
2023/02/09 06:51:16;;;;;;;30.60;14.60;;;;;;;-7.75;67.45;101766.70;78359;1295;3029169;-65
2023/02/09 06:53:43;;;;;;;35.20;14.90;;;;;;;-7.68;67.52;101767.08;79668;1292;3013142;-64
2023/02/09 06:56:11;;;;;;;38.60;17.40;;;;;;;-7.54;67.06;101764.85;79649;1298;3013760;-64
2023/02/09 06:58:39;;;;;;;34.60;15.20;;;;;;;-7.38;67.06;101760.53;78462;1291;3069473;-63
2023/02/09 07:01:07;;;;;;;34.30;15.40;;;;;;;-7.32;66.29;101757.45;79720;1292;3013390;-64
2023/02/09 07:03:34;;;;;;;33.20;14.70;;;;;;;-7.25;66.45;101757.56;79591;1292;3011623;-64
2023/02/09 07:06:07;;;;;;;36.60;16.40;;;;;;;-7.23;66.81;101762.27;78325;1292;3054657;-64
2023/02/09 07:08:34;;;;;;;34.10;16.30;;;;;;;-7.17;66.62;101762.21;79574;1293;3013824;-65
2023/02/09 07:11:08;;;;;;;33.70;13.90;;;;;;;-7.19;66.49;101761.45;78333;1294;3052426;-65
2023/02/09 07:13:35;;;;;;;33.70;13.40;;;;;;;-7.02;66.39;101762.80;79662;1291;3013799;-63
2023/02/09 07:16:05;;;;;;;37.70;14.90;;;;;;;-6.91;65.88;101762.10;79163;1293;3012530;-64
2023/02/09 07:18:35;;;;;;;44.20;15.90;;;;;;;-6.79;66.14;101756.02;79682;1295;3011956;-65
2023/02/09 07:21:07;;;;;;;36.10;16.20;;;;;;;-6.60;66.02;101754.14;78396;1295;3028699;-63
2023/02/09 07:23:34;;;;;;;36.60;16.10;;;;;;;-6.47;65.29;101756.97;79593;1292;3011762;-62
2023/02/09 07:26:07;;;;;;;35.20;15.50;;;;;;;-6.31;65.04;101754.60;78385;1292;3053962;-64
2023/02/09 07:28:35;;;;;;;33.40;15.30;;;;;;;-6.27;64.47;101758.20;79886;1295;3011506;-64
2023/02/09 07:31:04;;;;;;;45.70;15.60;;;;;;;-6.47;65.07;101762.43;78598;1295;3052998;-65
2023/02/09 07:33:32;;;;;;;35.80;15.00;;;;;;;-6.40;65.34;101767.02;79696;1295;3012951;-65
2023/02/09 07:35:58;;;;;;;36.60;14.30;;;;;;;-6.16;64.94;101760.58;79648;1293;3011959;-64
2023/02/09 07:38:26;;;;;;;38.30;14.60;;;;;;;-5.95;64.59;101757.86;78289;1295;3057204;-63
2023/02/09 07:40:53;;;;;;;31.50;13.50;;;;;;;-5.86;64.07;101758.58;79608;1291;3018255;-62
2023/02/09 07:43:20;;;;;;;35.50;14.30;;;;;;;-5.90;63.95;101755.88;79607;1292;3013157;-62
2023/02/09 07:45:48;;;;;;;36.70;14.60;;;;;;;-5.76;63.68;101754.58;78402;1295;3052645;-64
2023/02/09 07:48:14;;;;;;;30.20;13.20;;;;;;;-5.48;63.09;101750.10;79690;1292;3013147;-62
2023/02/09 07:50:47;;;;;;;39.80;14.70;;;;;;;-5.26;62.34;101754.60;79631;1295;3011825;-64
2023/02/09 07:53:15;;;;;;;37.70;15.70;;;;;;;-5.07;62.22;101753.27;78328;1295;3056492;-63
2023/02/09 07:55:42;;;;;;;30.40;13.00;;;;;;;-4.99;61.62;101753.44;79697;1292;3021356;-65
2023/02/09 07:58:09;;;;;;;35.80;13.70;;;;;;;-4.94;61.06;101751.23;79634;1292;3016142;-62
2023/02/09 08:00:38;;;;;;;34.40;14.00;;;;;;;-4.91;60.83;101747.43;76167;1295;5100587;-65
2023/02/09 08:03:05;;;;;;;30.90;13.60;;;;;;;-4.85;60.49;101752.28;79647;1295;3013120;-64
2023/02/09 08:05:36;;;;;;;28.70;14.20;;;;;;;-4.80;60.58;101751.10;79628;1291;3011880;-65
2023/02/09 08:08:05;;;;;;;29.00;13.60;;;;;;;-4.75;60.28;101753.36;78447;1291;3056650;-64
2023/02/09 08:10:33;;;;;;;39.40;14.80;;;;;;;-4.69;60.45;101751.52;79636;1292;3011661;-65
2023/02/09 08:13:03;;;;;;;30.30;14.10;;;;;;;-4.63;60.55;101752.09;79687;1293;3011974;-67
2023/02/09 08:15:41;;;;;;;26.00;12.60;;;;;;;-4.45;60.11;101749.00;78406;1295;3052862;-65
2023/02/09 08:18:19;;;;;;;27.90;13.10;;;;;;;-4.36;59.13;101751.71;78351;1295;3052353;-65
2023/02/09 08:20:47;;;;;;;29.90;12.60;;;;;;;-4.38;59.06;101749.61;78365;1294;3069626;-64
2023/02/09 08:23:17;;;;;;;26.60;12.70;;;;;;;-4.25;59.05;101741.33;79613;1295;3012838;-64
2023/02/09 08:25:50;;;;;;;34.70;16.10;;;;;;;-4.20;58.90;101741.35;79150;1291;3011730;-63
2023/02/09 08:28:20;;;;;;;31.00;14.80;;;;;;;-4.19;58.84;101739.84;79541;1295;3011909;-64
2023/02/09 08:30:48;;;;;;;32.90;14.80;;;;;;;-4.00;58.08;101740.71;78373;1291;3053345;-65
2023/02/09 08:33:15;;;;;;;36.30;14.00;;;;;;;-3.94;58.39;101740.55;79620;1304;3012994;-63
2023/02/09 08:35:42;;;;;;;32.50;14.20;;;;;;;-3.66;57.55;101737.25;79645;1293;3011957;-65
2023/02/09 08:38:09;;;;;;;32.00;13.90;;;;;;;-3.46;57.36;101743.73;78403;1292;3070407;-66
2023/02/09 08:40:40;;;;;;;43.40;15.90;;;;;;;-3.35;56.89;101744.09;79562;1293;3013750;-63
2023/02/09 08:43:09;;;;;;;34.30;15.70;;;;;;;-3.46;57.14;101745.80;79260;1292;3011579;-64
2023/02/09 08:45:37;;;;;;;37.40;16.20;;;;;;;-3.22;56.65;101739.55;79749;1295;3013190;-63
2023/02/09 08:48:05;;;;;;;33.30;16.80;;;;;;;-3.15;55.84;101743.87;79622;1292;3011646;-65
2023/02/09 08:50:36;;;;;;;36.60;15.40;;;;;;;-3.30;56.05;101747.17;78379;1298;3053132;-64
2023/02/09 08:53:03;;;;;;;36.60;15.40;;;;;;;-3.13;55.68;101738.96;79702;1295;3016116;-65
2023/02/09 08:55:31;;;;;;;33.10;14.50;;;;;;;-3.01;55.47;101741.73;80031;1291;3011704;-67
2023/02/09 08:57:59;;;;;;;38.80;15.90;;;;;;;-2.90;55.10;101740.38;78722;1295;3056255;-65
2023/02/09 09:00:26;;;;;;;31.20;15.20;;;;;;;-2.79;54.04;101742.26;79602;1291;3013675;-65
2023/02/09 09:02:52;;;;;;;31.60;13.70;;;;;;;-2.64;53.52;101739.45;79844;1292;3011619;-66
2023/02/09 09:05:20;;;;;;;31.30;14.00;;;;;;;-2.57;53.14;101735.87;78643;1295;3026141;-65
2023/02/09 09:07:47;;;;;;;31.30;13.80;;;;;;;-2.50;53.20;101732.28;80566;1294;3018352;-66
2023/02/09 09:10:19;;;;;;;33.10;14.70;;;;;;;-2.68;53.02;101731.41;78668;1295;3053927;-64
2023/02/09 09:12:46;;;;;;;39.00;16.60;;;;;;;-2.60;53.46;101727.73;79765;1292;3018390;-64
2023/02/09 09:15:12;;;;;;;33.30;15.30;;;;;;;-2.41;53.43;101718.99;79630;1291;3012137;-63
2023/02/09 09:17:41;;;;;;;33.60;15.90;;;;;;;-2.28;52.75;101714.57;78287;1295;3028347;-65
2023/02/09 09:20:08;;;;;;;31.30;14.30;;;;;;;-2.21;52.31;101711.49;79605;1295;3013105;-63
2023/02/09 09:22:36;;;;;;;33.60;14.80;;;;;;;-2.12;52.00;101712.77;79812;1292;3011860;-65
2023/02/09 09:25:04;;;;;;;32.90;13.80;;;;;;;-2.00;51.42;101705.02;78403;1292;3052182;-64
2023/02/09 09:27:34;;;;;;;30.20;12.10;;;;;;;-1.89;50.85;101709.07;79839;1292;3013700;-64
2023/02/09 09:30:03;;;;;;;25.00;11.20;;;;;;;-1.72;49.61;101702.13;78466;1292;3053844;-65
2023/02/09 09:32:33;;;;;;;23.80;10.70;;;;;;;-1.46;49.63;101697.80;79561;1292;3013159;-65
2023/02/09 09:35:02;;;;;;;25.20;10.60;;;;;;;-1.29;49.59;101695.45;78583;1295;3029736;-65
2023/02/09 09:37:29;;;;;;;26.60;11.70;;;;;;;-1.24;48.73;101689.73;79952;1295;3016006;-64
2023/02/09 09:39:56;;;;;;;28.60;11.20;;;;;;;-1.32;48.28;101685.59;79664;1292;3012148;-64
2023/02/09 09:42:42;;;;;;;25.00;11.30;;;;;;;-1.18;48.21;101682.11;78489;1294;3057318;-66
2023/02/09 09:45:13;;;;;;;26.40;10.60;;;;;;;-1.07;48.38;101684.45;78404;1291;3048624;-65
2023/02/09 09:47:41;;;;;;;26.20;11.70;;;;;;;-0.94;48.35;101683.17;79666;1291;3011598;-65
2023/02/09 09:50:17;;;;;;;30.00;13.60;;;;;;;-1.03;48.32;101677.83;78516;1295;3049325;-66
2023/02/09 09:52:54;;;;;;;33.40;13.10;;;;;;;-0.86;48.49;101669.06;78477;1297;3054135;-65
2023/02/09 09:55:28;;;;;;;28.60;11.50;;;;;;;-0.80;48.22;101665.05;78588;1295;3053981;-64
2023/02/09 09:57:55;;;;;;;;;;;;;;;-0.73;48.30;101661.95;79698;1294;3013365;-64
2023/02/09 10:00:26;;;;;;;21.90;10.20;;;;;;;-0.91;48.34;101662.77;78441;1292;3052110;-63
2023/02/09 10:02:53;;;;;;;25.60;10.60;;;;;;;-0.87;48.34;101658.89;79590;1291;3013865;-64
2023/02/09 10:05:23;;;;;;;25.70;11.90;;;;;;;-0.74;48.41;101657.45;79078;1291;3013047;-65
2023/02/09 10:07:55;;;;;;;27.60;11.80;;;;;;;-0.81;48.20;101654.04;79900;1292;3013156;-66
2023/02/09 10:10:51;;;;;;;28.70;12.70;;;;;;;-0.72;48.45;101651.12;78382;1294;3051170;-64
2023/02/09 10:13:29;;;;;;;25.90;11.60;;;;;;;-0.59;47.62;101646.73;78361;1295;3053892;-62
2023/02/09 10:15:57;;;;;;;23.90;11.30;;;;;;;-0.61;47.28;101644.63;78511;1295;3052417;-65
2023/02/09 10:18:25;;;;;;;24.90;12.00;;;;;;;-0.83;47.76;101647.95;79644;1295;3013692;-64
2023/02/09 10:20:55;;;;;;;21.90;10.40;;;;;;;-0.78;46.94;101640.14;79616;1291;3014163;-62
2023/02/09 10:23:24;;;;;;;18.50;9.50;;;;;;;-0.80;46.93;101637.69;78533;1294;3051407;-64
2023/02/09 10:25:52;;;;;;;25.00;10.30;;;;;;;-0.47;46.82;101630.27;79640;1294;3014742;-64
2023/02/09 10:28:23;;;;;;;27.20;12.30;;;;;;;-0.44;46.32;101627.04;79367;1291;3011541;-64
2023/02/09 10:30:51;;;;;;;26.00;10.10;;;;;;;-0.49;47.23;101622.14;79684;1291;3011787;-66
2023/02/09 10:33:20;;;;;;;20.70;9.90;;;;;;;-0.49;46.79;101622.14;79150;1292;3011703;-64
2023/02/09 10:35:52;;;;;;;19.90;9.70;;;;;;;-0.55;46.49;101625.13;79733;1292;3013913;-64
2023/02/09 10:38:21;;;;;;;20.90;9.30;;;;;;;-0.63;46.76;101627.02;78449;1293;3056281;-63
2023/02/09 10:40:48;;;;;;;18.90;9.00;;;;;;;-0.58;47.08;101621.10;79697;1291;3013523;-64
2023/02/09 10:43:22;;;;;;;21.10;9.30;;;;;;;-0.56;46.32;101622.34;79597;1292;3012160;-64
2023/02/09 10:45:58;;;;;;;25.40;9.50;;;;;;;-0.68;46.39;101628.30;78394;1291;3053899;-63
2023/02/09 10:48:26;;;;;;;23.60;8.50;;;;;;;-0.66;47.19;101624.55;78472;1298;3053269;-65
2023/02/09 10:50:53;;;;;;;19.00;8.20;;;;;;;-0.80;46.72;101619.45;79615;1294;3018884;-63
2023/02/09 10:53:27;;;;;;;20.00;8.70;;;;;;;-0.74;47.11;101618.90;79564;1291;3011626;-63
2023/02/09 10:56:13;;;;;;;19.90;8.60;;;;;;;-0.88;47.41;101613.95;78370;1295;3051089;-65
2023/02/09 10:58:47;;;;;;;25.20;8.90;;;;;;;-0.86;47.89;101612.12;78425;1295;3053147;-64
2023/02/09 11:01:18;;;;;;;22.60;8.80;;;;;;;-0.55;47.37;101602.56;79690;1298;3011893;-65
2023/02/09 11:03:58;;;;;;;22.80;10.10;;;;;;;-0.58;47.66;101597.67;78663;1292;3053448;-65
2023/02/09 11:06:26;;;;;;;23.00;8.80;;;;;;;-0.42;47.61;101593.86;78558;1292;3051746;-66
2023/02/09 11:09:32;;;;;;;22.50;9.00;;;;;;;-0.30;47.29;101590.13;79794;1292;3013029;-64
2023/02/09 11:12:01;;;;;;;20.20;9.10;;;;;;;-0.28;47.25;101584.14;78446;1295;3052378;-65
2023/02/09 11:14:29;;;;;;;24.10;9.70;;;;;;;-0.60;47.61;101586.45;79527;1291;3013218;-66
2023/02/09 11:17:13;;;;;;;16.30;8.20;;;;;;;-0.65;47.95;101577.23;79633;1292;3011959;-65
2023/02/09 11:20:07;;;;;;;21.40;10.00;;;;;;;-0.60;48.28;101577.67;78377;1295;3051498;-64